Time;durP1;ratioP1;P1;durP2;ratioP2;P2;SDS_P1;SDS_P2;PMS_P1;PMS_P2;Temp;Humidity;BMP_temperature;BMP_pressure;BME280_temperature;BME280_humidity;BME280_pressure;Samples;Min_cycle;Max_cycle;Signal;HPM_P1;HPM_P2
2023/10/09 00:02:50;;;;;;;1.35;1.00;;;12.80;99.90;;;;;;5056876;28;20028;-60
2023/10/09 00:05:25;;;;;;;1.40;1.23;;;12.90;99.90;;;;;;5060562;28;20033;-60
2023/10/09 00:07:55;;;;;;;1.90;1.20;;;12.80;99.90;;;;;;5057470;28;20040;-61
2023/10/09 00:10:21;;;;;;;2.83;1.25;;;12.80;99.90;;;;;;5062483;28;20058;-61
2023/10/09 00:12:49;;;;;;;3.55;1.75;;;12.80;99.90;;;;;;5057599;28;20037;-61
2023/10/09 00:15:17;;;;;;;2.28;1.50;;;12.80;99.90;;;;;;5058363;28;20028;-61
2023/10/09 00:17:46;;;;;;;1.85;1.20;;;12.70;99.90;;;;;;5057764;28;20040;-61
2023/10/09 00:20:19;;;;;;;1.67;1.10;;;12.70;99.90;;;;;;5056527;28;20025;-61
2023/10/09 00:22:46;;;;;;;2.15;1.42;;;12.70;99.90;;;;;;5055874;28;20111;-61
2023/10/09 00:25:12;;;;;;;3.75;1.65;;;12.70;99.90;;;;;;5057984;28;20028;-62
2023/10/09 00:27:42;;;;;;;2.22;1.40;;;12.70;99.90;;;;;;5058174;28;20446;-61
2023/10/09 00:30:21;;;;;;;2.58;1.50;;;12.70;99.90;;;;;;5059361;28;20107;-61
2023/10/09 00:33:00;;;;;;;3.92;1.40;;;12.70;99.90;;;;;;5065349;28;20143;-61
2023/10/09 00:35:36;;;;;;;3.05;1.50;;;12.70;99.90;;;;;;5063249;28;20668;-61
2023/10/09 00:38:14;;;;;;;1.60;1.35;;;12.70;99.90;;;;;;5060246;28;20029;-61
2023/10/09 00:40:46;;;;;;;2.00;1.20;;;12.60;99.90;;;;;;5063748;28;20043;-61
2023/10/09 00:43:13;;;;;;;2.50;1.63;;;12.60;99.90;;;;;;5058919;28;20033;-61
2023/10/09 00:45:44;;;;;;;1.30;1.20;;;12.60;99.90;;;;;;5064923;28;20123;-60
2023/10/09 00:48:13;;;;;;;4.00;1.55;;;12.60;99.90;;;;;;5059977;28;20060;-61
2023/10/09 00:50:46;;;;;;;2.22;1.40;;;12.60;99.90;;;;;;5064832;28;20033;-60
2023/10/09 00:53:18;;;;;;;4.60;1.60;;;12.60;99.90;;;;;;5057576;28;20094;-61
2023/10/09 00:55:45;;;;;;;5.35;1.98;;;12.70;99.90;;;;;;5064392;28;20036;-61
2023/10/09 00:58:23;;;;;;;2.78;1.40;;;12.60;99.90;;;;;;5061823;28;20152;-61
2023/10/09 01:00:52;;;;;;;2.92;1.50;;;12.70;99.90;;;;;;5062303;28;20081;-61
2023/10/09 01:03:20;;;;;;;2.60;1.45;;;12.60;99.90;;;;;;5056773;28;20385;-60
2023/10/09 01:08:43;;;;;;;4.07;1.38;;;12.60;99.90;;;;;;5058559;28;20084;-60
2023/10/09 01:11:29;;;;;;;3.88;1.70;;;12.70;99.90;;;;;;5064229;28;20066;-61
2023/10/09 01:14:11;;;;;;;3.25;1.52;;;12.60;99.90;;;;;;5057009;28;20028;-61
2023/10/09 01:16:40;;;;;;;4.07;1.98;;;12.70;99.90;;;;;;5062599;28;20036;-61
2023/10/09 01:19:12;;;;;;;3.58;2.13;;;12.60;99.90;;;;;;5061062;28;20543;-60
2023/10/09 01:21:39;;;;;;;3.00;1.85;;;12.70;99.90;;;;;;5062999;28;20037;-61
2023/10/09 01:24:08;;;;;;;4.38;1.90;;;12.70;99.90;;;;;;5060887;28;20032;-61
2023/10/09 01:26:39;;;;;;;2.53;1.52;;;12.70;99.90;;;;;;5063862;28;20064;-60
2023/10/09 01:29:29;;;;;;;4.53;2.10;;;12.70;99.90;;;;;;5060919;28;20563;-61
2023/10/09 01:31:56;;;;;;;7.35;2.10;;;12.70;99.90;;;;;;5077724;28;20032;-61
2023/10/09 01:34:24;;;;;;;2.83;1.90;;;12.70;99.90;;;;;;5059431;28;20047;-61
2023/10/09 01:36:54;;;;;;;2.78;1.90;;;12.70;99.90;;;;;;5063142;28;20024;-61
2023/10/09 01:39:39;;;;;;;7.03;1.80;;;12.70;99.90;;;;;;5059962;28;20029;-60
2023/10/09 01:42:06;;;;;;;3.53;1.87;;;12.70;99.90;;;;;;5061138;28;20496;-61
2023/10/09 01:44:35;;;;;;;5.10;1.85;;;12.70;99.90;;;;;;5058627;28;21106;-61
2023/10/09 01:47:07;;;;;;;3.25;1.75;;;12.80;99.90;;;;;;5065393;28;20129;-61
2023/10/09 01:49:41;;;;;;;4.15;1.65;;;12.70;99.90;;;;;;5064706;28;20035;-61
2023/10/09 01:52:16;;;;;;;2.70;1.60;;;12.70;99.90;;;;;;5061988;28;20028;-61
2023/10/09 01:54:48;;;;;;;3.88;1.77;;;12.70;99.90;;;;;;5061636;28;20379;-61
2023/10/09 01:57:22;;;;;;;3.15;1.77;;;12.70;99.90;;;;;;5062070;28;20059;-61
2023/10/09 01:59:49;;;;;;;3.72;2.03;;;12.80;99.90;;;;;;5064785;28;20085;-61
2023/10/09 02:02:26;;;;;;;2.47;1.70;;;12.80;99.90;;;;;;5059187;28;20047;-61
2023/10/09 02:07:44;;;;;;;;;;;12.70;99.90;;;;;;5060605;28;20098;-61
2023/10/09 02:12:57;;;;;;;3.70;1.38;;;12.70;99.90;;;;;;5059625;28;20067;-60
2023/10/09 02:21:12;;;;;;;3.08;1.88;;;12.70;99.90;;;;;;5061251;28;20111;-61
2023/10/09 02:29:00;;;;;;;2.63;1.48;;;12.70;99.90;;;;;;5059097;28;20078;-61
2023/10/09 02:31:35;;;;;;;2.15;1.00;;;12.70;99.90;;;;;;5060480;28;20047;-61
2023/10/09 02:34:05;;;;;;;6.43;1.67;;;12.60;99.90;;;;;;5057274;28;20082;-61
2023/10/09 02:36:31;;;;;;;2.97;1.33;;;12.60;99.90;;;;;;5061018;28;20507;-61
2023/10/09 02:38:56;;;;;;;1.90;1.20;;;12.60;99.90;;;;;;5064060;28;20765;-61
2023/10/09 02:41:23;;;;;;;4.75;1.70;;;12.60;99.90;;;;;;5059911;28;20017;-61
2023/10/09 02:43:55;;;;;;;2.67;1.40;;;12.60;99.90;;;;;;5059468;28;20079;-61
2023/10/09 02:46:28;;;;;;;3.35;1.90;;;12.50;99.90;;;;;;5060213;28;20365;-61
2023/10/09 02:48:56;;;;;;;4.80;2.03;;;12.50;99.90;;;;;;5058650;28;20036;-61
2023/10/09 02:53:53;;;;;;;2.85;1.67;;;12.50;99.90;;;;;;5062665;28;20028;-61
2023/10/09 02:56:35;;;;;;;3.30;1.42;;;12.50;99.90;;;;;;5059557;28;20035;-61
2023/10/09 02:59:05;;;;;;;4.28;1.80;;;12.50;99.90;;;;;;5058489;28;20468;-61
2023/10/09 03:01:34;;;;;;;1.92;1.30;;;12.50;99.90;;;;;;5061237;28;20040;-60
2023/10/09 03:04:14;;;;;;;3.63;1.88;;;12.50;99.90;;;;;;5063236;28;20509;-61
2023/10/09 03:06:49;;;;;;;2.92;1.42;;;12.50;99.90;;;;;;5063674;28;20035;-61
2023/10/09 03:09:26;;;;;;;2.40;1.60;;;12.50;99.90;;;;;;5055287;28;20571;-60
2023/10/09 03:11:53;;;;;;;;;;;12.50;99.90;;;;;;5061606;28;20044;-61
2023/10/09 03:14:20;;;;;;;3.08;1.65;;;12.50;99.90;;;;;;5054028;28;19916;-61
2023/10/09 03:16:49;;;;;;;3.40;1.58;;;12.50;99.90;;;;;;5061129;28;20439;-60
2023/10/09 03:19:15;;;;;;;3.05;1.92;;;12.50;99.90;;;;;;5055439;28;20036;-61
2023/10/09 03:21:41;;;;;;;2.85;1.60;;;12.50;99.90;;;;;;5060512;28;20465;-61
2023/10/09 03:24:07;;;;;;;3.83;1.83;;;12.50;99.90;;;;;;5056766;28;20028;-61
2023/10/09 03:26:34;;;;;;;4.63;1.92;;;12.40;99.90;;;;;;5062254;28;20031;-61
2023/10/09 03:29:01;;;;;;;3.70;1.65;;;12.50;99.90;;;;;;5063193;28;20028;-60
2023/10/09 03:31:33;;;;;;;4.40;1.60;;;12.50;99.90;;;;;;5059590;28;20483;-61
2023/10/09 03:33:59;;;;;;;3.72;1.70;;;12.40;99.90;;;;;;5058896;28;20031;-61
2023/10/09 03:36:29;;;;;;;3.00;1.42;;;12.50;99.90;;;;;;5060011;28;20032;-62
2023/10/09 03:38:57;;;;;;;1.88;1.40;;;12.50;99.90;;;;;;5059421;28;20552;-61
2023/10/09 03:41:26;;;;;;;4.75;1.77;;;12.50;99.90;;;;;;5059241;28;20036;-61
2023/10/09 03:43:54;;;;;;;2.17;1.63;;;12.50;99.90;;;;;;5059565;28;20020;-61
2023/10/09 03:46:25;;;;;;;3.25;1.65;;;12.50;99.90;;;;;;5059605;28;20036;-61
2023/10/09 03:48:57;;;;;;;2.75;1.27;;;12.50;99.90;;;;;;5058015;28;20496;-61
2023/10/09 03:51:23;;;;;;;2.70;1.38;;;12.40;99.90;;;;;;5055319;28;20662;-60
2023/10/09 03:53:50;;;;;;;2.40;1.20;;;12.40;99.90;;;;;;5059907;28;20033;-61
2023/10/09 03:56:17;;;;;;;2.83;1.58;;;12.40;99.90;;;;;;5056705;28;20039;-60
2023/10/09 03:58:48;;;;;;;5.28;1.52;;;12.40;99.90;;;;;;5058887;28;20033;-61
2023/10/09 04:01:22;;;;;;;1.88;1.10;;;12.40;99.90;;;;;;5057137;28;20032;-61
2023/10/09 04:03:49;;;;;;;2.05;1.35;;;12.30;99.90;;;;;;5059037;28;20043;-63
2023/10/09 04:06:17;;;;;;;3.00;1.40;;;12.40;99.90;;;;;;5056937;28;20570;-61
2023/10/09 04:08:49;;;;;;;3.28;1.27;;;12.40;99.90;;;;;;5058929;28;20029;-61
2023/10/09 04:11:22;;;;;;;3.25;1.40;;;12.30;99.90;;;;;;5057100;28;20043;-60
2023/10/09 04:14:11;;;;;;;7.15;1.75;;;12.30;99.90;;;;;;5059608;28;20028;-61
2023/10/09 04:16:51;;;;;;;2.42;1.33;;;12.30;99.90;;;;;;5059779;28;20492;-61
2023/10/09 04:19:21;;;;;;;3.63;1.10;;;12.30;99.90;;;;;;5056819;28;20024;-60
2023/10/09 04:21:48;;;;;;;2.95;1.58;;;12.30;99.90;;;;;;5059296;28;20150;-61
2023/10/09 04:26:44;;;;;;;2.95;1.42;;;12.30;99.90;;;;;;5059751;28;20028;-61
2023/10/09 04:29:26;;;;;;;5.05;1.52;;;12.20;99.90;;;;;;5057175;28;20029;-61
2023/10/09 04:31:55;;;;;;;4.00;1.77;;;12.20;99.90;;;;;;5056252;28;20071;-61
2023/10/09 04:36:51;;;;;;;3.30;1.40;;;12.10;99.90;;;;;;5060108;28;20070;-61
2023/10/09 04:47:37;;;;;;;3.85;2.00;;;12.20;99.90;;;;;;5058976;28;20076;-61
2023/10/09 04:50:08;;;;;;;3.30;2.00;;;12.20;99.90;;;;;;5057778;28;20028;-61
2023/10/09 04:58:23;;;;;;;6.13;2.47;;;12.10;99.90;;;;;;5056500;28;20040;-61
2023/10/09 05:02:54;;;;;;;3.38;1.92;;;12.20;99.90;;;;;;5054857;28;19915;-61
2023/10/09 05:08:28;;;;;;;4.57;2.38;;;12.20;99.90;;;;;;5060176;28;20476;-61
2023/10/09 05:18:42;;;;;;;4.13;2.50;;;12.20;99.90;;;;;;5059689;28;20036;-61
2023/10/09 05:23:49;;;;;;;4.72;2.05;;;12.10;99.90;;;;;;5063055;28;20685;-61
2023/10/09 05:28:59;;;;;;;3.60;2.20;;;12.10;99.90;;;;;;5064089;28;20029;-61
2023/10/09 05:34:12;;;;;;;3.75;2.33;;;12.00;99.90;;;;;;5062632;28;20039;-61
2023/10/09 05:36:38;;;;;;;3.55;2.08;;;12.00;99.90;;;;;;5062243;28;20087;-61
2023/10/09 05:39:29;;;;;;;3.72;1.90;;;12.00;99.90;;;;;;5063775;28;20029;-61
2023/10/09 05:42:09;;;;;;;3.97;2.17;;;12.00;99.90;;;;;;5059890;28;20738;-61
2023/10/09 05:47:31;;;;;;;3.15;2.00;;;11.90;99.90;;;;;;5059289;28;20769;-61
2023/10/09 05:50:33;;;;;;;8.20;2.20;;;11.90;99.90;;;;;;5060499;28;20115;-61
2023/10/09 06:03:25;;;;;;;4.75;1.65;;;11.80;99.90;;;;;;5061184;28;20024;-61
2023/10/09 06:11:38;;;;;;;4.90;2.05;;;11.90;99.90;;;;;;5059560;28;20045;-61
2023/10/09 06:16:41;;;;;;;3.30;1.73;;;11.90;99.90;;;;;;5057199;28;20032;-61
2023/10/09 06:19:12;;;;;;;3.30;1.83;;;11.90;99.90;;;;;;5063953;28;20105;-61
2023/10/09 06:24:23;;;;;;;4.88;1.67;;;12.00;99.90;;;;;;5059658;28;20467;-61
2023/10/09 06:35:15;;;;;;;3.55;1.90;;;12.00;99.90;;;;;;5059830;28;20430;-61
2023/10/09 06:43:26;;;;;;;4.78;2.00;;;12.10;99.90;;;;;;5059179;28;20377;-61
2023/10/09 06:45:54;;;;;;;6.00;2.25;;;12.20;99.90;;;;;;5059356;28;20098;-61
2023/10/09 06:59:15;;;;;;;7.57;2.15;;;12.20;99.90;;;;;;5060169;28;20032;-61
2023/10/09 07:01:47;;;;;;;5.35;2.13;;;12.20;99.90;;;;;;5058259;28;20067;-61
2023/10/09 07:04:19;;;;;;;3.22;2.10;;;12.30;99.90;;;;;;5061599;28;20377;-61
2023/10/09 07:06:50;;;;;;;2.47;1.98;;;12.30;99.90;;;;;;5058552;28;20163;-61
2023/10/09 07:09:19;;;;;;;6.10;2.55;;;12.40;99.90;;;;;;5057300;28;20032;-61
2023/10/09 07:14:41;;;;;;;5.40;2.78;;;12.50;99.90;;;;;;5059286;28;20397;-61
2023/10/09 07:17:44;;;;;;;5.60;3.05;;;12.50;99.90;;;;;;5054517;28;20097;-61
2023/10/09 07:20:15;;;;;;;5.35;3.00;;;12.50;99.90;;;;;;5061045;28;20035;-61
2023/10/09 07:23:13;;;;;;;5.82;2.60;;;12.50;99.90;;;;;;5056617;28;20025;-61
2023/10/09 07:25:54;;;;;;;4.85;2.60;;;12.50;99.90;;;;;;5059192;28;20516;-61
2023/10/09 07:28:42;;;;;;;4.13;2.20;;;12.60;99.90;;;;;;5061506;28;20736;-61
2023/10/09 07:31:16;;;;;;;6.07;2.80;;;12.60;99.90;;;;;;5060114;28;20068;-61
2023/10/09 07:33:58;;;;;;;4.50;2.85;;;12.70;99.90;;;;;;5059559;28;20063;-61
2023/10/09 07:36:34;;;;;;;6.15;2.90;;;12.80;99.90;;;;;;5060178;28;20115;-61
2023/10/09 07:39:13;;;;;;;6.97;3.10;;;12.80;99.90;;;;;;5056779;28;20029;-60
2023/10/09 07:41:44;;;;;;;4.85;2.83;;;12.80;99.90;;;;;;5063103;28;20032;-61
2023/10/09 07:44:53;;;;;;;5.53;2.40;;;12.90;99.90;;;;;;5058873;28;20020;-61
2023/10/09 07:47:22;;;;;;;4.63;2.80;;;12.90;99.90;;;;;;5054131;28;20040;-61
2023/10/09 07:49:51;;;;;;;4.30;2.65;;;12.90;99.90;;;;;;5064380;28;20081;-61
2023/10/09 07:52:18;;;;;;;5.47;2.88;;;13.00;99.90;;;;;;5064086;28;20614;-61
2023/10/09 07:54:49;;;;;;;3.85;2.33;;;13.00;99.90;;;;;;5062151;28;20571;-61
2023/10/09 07:57:25;;;;;;;4.25;2.92;;;13.00;99.90;;;;;;5057121;28;20032;-61
2023/10/09 07:59:54;;;;;;;3.30;2.10;;;13.00;99.90;;;;;;5058820;28;20029;-61
2023/10/09 08:02:31;;;;;;;3.50;2.30;;;13.00;99.90;;;;;;5056102;28;20020;-61
2023/10/09 08:05:18;;;;;;;7.05;2.85;;;13.00;99.90;;;;;;5059473;28;20039;-60
2023/10/09 08:12:58;;;;;;;5.28;2.95;;;13.10;99.90;;;;;;5057898;28;20474;-61
2023/10/09 08:18:14;;;;;;;3.83;2.35;;;13.00;99.90;;;;;;5053248;28;20021;-61
2023/10/09 08:23:33;;;;;;;5.13;3.05;;;13.10;99.90;;;;;;5054202;28;20025;-61
2023/10/09 08:26:12;;;;;;;4.50;2.47;;;13.00;99.90;;;;;;5061204;28;20032;-60
2023/10/09 08:33:58;;;;;;;3.58;2.65;;;12.90;99.90;;;;;;5056227;28;20119;-61
2023/10/09 08:36:28;;;;;;;3.88;2.30;;;12.90;99.90;;;;;;5058370;28;20036;-61
2023/10/09 08:39:08;;;;;;;4.07;2.45;;;12.90;99.90;;;;;;5056418;28;20445;-61
2023/10/09 08:41:33;;;;;;;4.65;2.47;;;13.00;99.90;;;;;;5058240;28;20543;-61
2023/10/09 08:44:03;;;;;;;5.35;3.20;;;13.00;99.90;;;;;;5056757;28;20032;-60
2023/10/09 08:46:30;;;;;;;4.93;3.10;;;13.10;99.90;;;;;;5039904;28;20136;-61
2023/10/09 08:48:58;;;;;;;3.90;2.65;;;13.10;99.90;;;;;;5055710;28;20039;-61
2023/10/09 08:51:29;;;;;;;5.15;3.08;;;13.10;99.90;;;;;;5060671;28;20028;-61
2023/10/09 08:53:55;;;;;;;3.33;2.78;;;13.10;99.90;;;;;;5063822;28;20618;-61
2023/10/09 08:56:22;;;;;;;3.80;2.40;;;13.20;99.90;;;;;;5062825;28;20036;-61
2023/10/09 08:58:57;;;;;;;3.05;2.42;;;13.20;99.90;;;;;;5060306;28;20021;-61
2023/10/09 09:01:24;;;;;;;5.18;2.47;;;13.20;99.90;;;;;;5061359;28;20029;-61
2023/10/09 09:03:51;;;;;;;4.35;2.30;;;13.10;99.90;;;;;;5059886;28;20028;-61
2023/10/09 09:06:20;;;;;;;5.25;3.15;;;13.10;99.90;;;;;;5061191;28;20062;-62
2023/10/09 09:08:54;;;;;;;5.05;2.45;;;13.10;99.90;;;;;;5059536;28;20033;-61
2023/10/09 09:11:24;;;;;;;5.43;2.80;;;13.10;99.90;;;;;;5060946;28;20044;-61
2023/10/09 09:14:05;;;;;;;5.85;3.28;;;13.10;99.90;;;;;;5060198;28;20036;-61
2023/10/09 09:16:34;;;;;;;4.82;3.10;;;13.10;99.90;;;;;;5061287;28;20670;-61
2023/10/09 09:21:42;;;;;;;7.90;4.57;;;13.20;99.90;;;;;;5062640;28;20091;-63
2023/10/09 09:26:59;;;;;;;4.85;2.60;;;13.20;99.90;;;;;;5065375;28;20331;-63
2023/10/09 09:29:37;;;;;;;4.38;2.70;;;13.30;99.90;;;;;;5062326;28;20130;-62
2023/10/09 09:32:20;;;;;;;4.78;2.88;;;13.30;99.90;;;;;;5061776;28;20179;-63
2023/10/09 09:35:27;;;;;;;4.03;2.30;;;13.30;99.90;;;;;;5059257;28;21338;-63
2023/10/09 09:37:54;;;;;;;3.13;2.08;;;13.30;99.90;;;;;;5062189;28;20538;-63
2023/10/09 09:40:29;;;;;;;4.85;2.60;;;13.30;99.90;;;;;;5059192;28;20103;-62
2023/10/09 09:43:06;;;;;;;4.63;2.20;;;13.30;99.90;;;;;;5060278;28;20059;-63
2023/10/09 09:45:34;;;;;;;3.60;2.70;;;13.30;99.90;;;;;;5059709;28;20455;-63
2023/10/09 09:48:05;;;;;;;8.52;3.08;;;13.40;99.90;;;;;;5065113;28;20119;-63
2023/10/09 09:50:43;;;;;;;4.57;2.40;;;13.40;99.90;;;;;;5057532;28;20041;-63
2023/10/09 09:53:17;;;;;;;4.00;2.05;;;13.40;99.90;;;;;;5058939;28;20795;-63
2023/10/09 09:55:57;;;;;;;2.67;1.90;;;13.40;99.90;;;;;;5060389;28;20045;-62
2023/10/09 09:58:24;;;;;;;6.07;2.72;;;13.40;99.90;;;;;;5058853;28;20082;-62
2023/10/09 10:00:54;;;;;;;3.75;2.75;;;13.40;99.90;;;;;;5060979;28;20153;-61
2023/10/09 10:03:33;;;;;;;3.33;2.15;;;13.50;99.90;;;;;;5057868;28;20037;-63
2023/10/09 10:06:05;;;;;;;3.17;2.17;;;13.50;99.90;;;;;;5058912;28;20739;-62
2023/10/09 10:08:32;;;;;;;4.90;2.22;;;13.50;99.90;;;;;;5057724;28;20025;-62
2023/10/09 10:11:04;;;;;;;8.02;2.20;;;13.50;99.90;;;;;;5061641;28;20381;-62
2023/10/09 10:13:42;;;;;;;3.58;2.60;;;13.60;99.90;;;;;;5058178;28;20040;-62
2023/10/09 10:16:15;;;;;;;3.60;2.25;;;13.70;99.90;;;;;;5060839;28;20055;-62
2023/10/09 10:18:59;;;;;;;3.30;2.38;;;13.70;99.90;;;;;;5059137;28;20037;-62
2023/10/09 10:24:05;;;;;;;4.22;2.63;;;13.80;99.90;;;;;;5058828;28;20024;-62
2023/10/09 10:26:34;;;;;;;4.57;3.10;;;13.80;99.90;;;;;;5063387;28;20040;-63
2023/10/09 10:29:33;;;;;;;5.28;2.90;;;13.80;99.90;;;;;;5059988;28;20108;-62
2023/10/09 10:32:11;;;;;;;5.22;2.92;;;13.70;99.90;;;;;;5058141;28;20035;-63
2023/10/09 10:34:56;;;;;;;3.55;2.55;;;13.70;99.90;;;;;;5056912;28;20036;-63
2023/10/09 10:38:00;;;;;;;3.85;3.03;;;13.60;99.90;;;;;;5059234;28;20550;-63
2023/10/09 10:40:46;;;;;;;6.72;2.80;;;13.70;99.90;;;;;;5057219;28;20108;-63
2023/10/09 10:48:59;;;;;;;3.72;2.50;;;13.90;99.90;;;;;;5058184;28;20020;-62
2023/10/09 10:51:40;;;;;;;4.53;3.00;;;14.00;99.90;;;;;;5059663;28;20040;-63
2023/10/09 10:56:57;;;;;;;3.97;2.70;;;14.00;99.90;;;;;;5062772;28;20041;-63
2023/10/09 10:59:24;;;;;;;4.55;2.40;;;14.10;99.90;;;;;;5056729;28;20033;-63
2023/10/09 11:07:16;;;;;;;4.68;2.25;;;14.20;99.90;;;;;;5057636;28;20028;-63
2023/10/09 11:18:26;;;;;;;5.15;2.50;;;14.20;99.90;;;;;;5061547;28;20102;-63
2023/10/09 11:31:45;;;;;;;4.55;2.42;;;14.10;99.90;;;;;;5062438;28;20084;-63
2023/10/09 11:34:28;;;;;;;3.85;2.55;;;14.10;99.90;;;;;;5059962;28;20035;-63
2023/10/09 11:36:57;;;;;;;5.65;2.40;;;14.10;99.90;;;;;;5055681;28;20031;-63
2023/10/09 11:39:37;;;;;;;3.92;2.42;;;14.10;99.90;;;;;;5056753;28;20028;-63
2023/10/09 11:42:04;;;;;;;3.05;2.75;;;14.10;99.90;;;;;;5060951;28;20037;-63
2023/10/09 11:44:45;;;;;;;4.68;2.72;;;14.10;99.90;;;;;;5056084;28;20037;-63
2023/10/09 11:50:13;;;;;;;4.15;2.78;;;14.10;99.90;;;;;;5057501;28;20128;-65
2023/10/09 11:53:32;;;;;;;4.38;2.88;;;14.00;99.90;;;;;;5059555;28;20025;-63
2023/10/09 11:55:58;;;;;;;3.97;2.63;;;14.00;99.90;;;;;;5056917;28;20040;-63
2023/10/09 11:58:24;;;;;;;4.20;2.67;;;14.00;99.90;;;;;;5059261;28;20109;-63
2023/10/09 12:00:58;;;;;;;3.60;3.13;;;14.10;99.90;;;;;;5057189;28;20333;-63
2023/10/09 12:03:29;;;;;;;3.45;2.65;;;14.10;99.90;;;;;;5058109;28;20036;-63
2023/10/09 12:06:04;;;;;;;2.97;2.67;;;14.10;99.90;;;;;;5056970;28;20073;-63
2023/10/09 12:08:33;;;;;;;3.95;2.80;;;14.00;99.90;;;;;;5058620;28;20044;-63
2023/10/09 12:11:08;;;;;;;4.40;2.65;;;14.10;99.90;;;;;;5057249;28;20041;-64
2023/10/09 12:13:33;;;;;;;4.82;3.33;;;14.10;99.90;;;;;;5059281;28;20382;-63
2023/10/09 12:15:59;;;;;;;7.10;3.78;;;14.10;99.90;;;;;;5056963;28;20082;-62
2023/10/09 12:18:25;;;;;;;4.97;3.30;;;14.30;99.90;;;;;;5059539;28;20028;-63
2023/10/09 12:20:51;;;;;;;8.20;3.88;;;14.30;99.90;;;;;;5057170;28;20074;-63
2023/10/09 12:23:19;;;;;;;3.65;3.05;;;14.30;99.90;;;;;;5060607;28;20601;-64
2023/10/09 12:25:45;;;;;;;3.92;2.83;;;14.30;99.90;;;;;;5056687;28;20055;-64
2023/10/09 12:28:14;;;;;;;3.72;2.65;;;14.30;99.90;;;;;;5059624;28;20115;-63
2023/10/09 12:30:41;;;;;;;5.30;2.60;;;14.30;99.90;;;;;;5057391;28;20052;-67
2023/10/09 12:33:08;;;;;;;3.35;2.75;;;14.30;99.90;;;;;;5058610;28;20146;-65
2023/10/09 12:35:38;;;;;;;7.90;3.60;;;14.40;99.90;;;;;;5055163;28;20120;-63
2023/10/09 12:38:09;;;;;;;6.22;4.63;;;14.40;99.90;;;;;;5058620;28;20060;-63
2023/10/09 12:40:36;;;;;;;4.55;3.70;;;14.40;99.90;;;;;;5055280;28;20393;-63
2023/10/09 12:43:02;;;;;;;4.10;3.17;;;14.40;99.90;;;;;;5058372;28;20116;-63
2023/10/09 12:45:32;;;;;;;4.50;2.90;;;14.50;99.90;;;;;;5055584;28;20104;-63
2023/10/09 12:47:59;;;;;;;4.90;3.17;;;14.50;99.90;;;;;;5059164;28;20032;-63
2023/10/09 12:50:28;;;;;;;5.07;3.00;;;14.50;99.90;;;;;;5055869;28;20127;-63
2023/10/09 12:53:06;;;;;;;4.03;2.67;;;14.50;99.90;;;;;;5057994;28;20037;-63
2023/10/09 12:55:41;;;;;;;3.28;2.78;;;14.50;99.90;;;;;;5055927;28;20136;-63
2023/10/09 12:58:08;;;;;;;4.17;2.73;;;14.50;99.90;;;;;;5058647;28;20707;-62
2023/10/09 13:00:43;;;;;;;4.35;2.40;;;14.60;99.90;;;;;;5055046;28;20616;-62
2023/10/09 13:03:18;;;;;;;3.72;2.83;;;14.60;99.90;;;;;;5058422;28;20032;-63
2023/10/09 13:05:54;;;;;;;3.60;2.70;;;14.60;99.90;;;;;;5055992;28;20230;-63
2023/10/09 13:08:31;;;;;;;5.03;3.05;;;14.60;99.90;;;;;;5058008;28;20040;-62
2023/10/09 13:11:04;;;;;;;3.90;3.20;;;14.60;99.90;;;;;;5056571;28;20067;-63
2023/10/09 13:13:51;;;;;;;4.43;3.47;;;14.60;99.90;;;;;;5057347;28;20139;-63
2023/10/09 13:16:24;;;;;;;4.68;3.30;;;14.60;99.90;;;;;;5055514;28;20439;-63
2023/10/09 13:18:51;;;;;;;4.72;3.00;;;14.60;99.90;;;;;;5060096;28;20040;-63
2023/10/09 13:21:26;;;;;;;6.55;3.28;;;14.50;99.90;;;;;;5055029;28;20052;-62
2023/10/09 13:23:54;;;;;;;3.83;3.10;;;14.50;99.90;;;;;;5057990;28;21047;-63
2023/10/09 13:26:25;;;;;;;6.43;3.28;;;14.50;99.90;;;;;;5058116;28;20040;-62
2023/10/09 13:28:55;;;;;;;3.50;2.92;;;14.40;99.90;;;;;;5061864;28;20036;-62
2023/10/09 13:31:25;;;;;;;3.85;3.00;;;14.40;99.90;;;;;;5055390;28;20029;-62
2023/10/09 13:33:55;;;;;;;3.47;3.00;;;14.50;99.90;;;;;;5060782;28;20028;-62
2023/10/09 13:36:31;;;;;;;3.33;2.90;;;14.50;99.90;;;;;;5055183;28;20036;-62
2023/10/09 13:41:47;;;;;;;4.38;3.55;;;14.50;99.90;;;;;;5059353;28;20507;-62
2023/10/09 13:44:13;;;;;;;5.68;3.60;;;14.40;99.90;;;;;;5063228;28;20547;-61
2023/10/09 13:46:41;;;;;;;3.78;2.67;;;14.40;99.90;;;;;;5057981;28;20036;-62
2023/10/09 13:49:12;;;;;;;6.25;3.22;;;14.50;99.90;;;;;;5064544;28;20098;-62
2023/10/09 13:51:44;;;;;;;4.93;3.40;;;14.40;99.90;;;;;;5057762;28;20036;-62
2023/10/09 13:57:00;;;;;;;7.57;4.53;;;14.40;99.90;;;;;;5054999;28;20072;-62
2023/10/09 13:59:26;;;;;;;8.73;5.57;;;14.30;99.90;;;;;;5061965;28;20036;-62
2023/10/09 14:01:56;;;;;;;7.88;3.72;;;14.30;99.90;;;;;;5062371;28;20039;-62
2023/10/09 14:04:22;;;;;;;6.95;3.58;;;14.30;99.90;;;;;;5059848;28;20167;-62
2023/10/09 14:06:56;;;;;;;5.20;4.00;;;14.20;99.90;;;;;;5058701;28;20783;-62
2023/10/09 14:09:37;;;;;;;6.15;4.53;;;14.10;99.90;;;;;;5059930;28;20047;-62
2023/10/09 14:12:08;;;;;;;5.25;3.60;;;14.10;99.90;;;;;;5059735;28;20131;-62
2023/10/09 14:14:46;;;;;;;7.05;4.88;;;14.10;99.90;;;;;;5060355;28;20037;-62
2023/10/09 14:17:13;;;;;;;6.70;4.75;;;14.00;99.90;;;;;;5056562;28;20086;-62
2023/10/09 14:19:49;;;;;;;5.90;4.70;;;14.10;99.90;;;;;;5061511;28;20087;-62
2023/10/09 14:22:16;;;;;;;;;;;14.10;99.90;;;;;;5060696;28;20062;-62
2023/10/09 14:24:45;;;;;;;7.00;4.40;;;14.10;99.90;;;;;;5059257;28;19919;-62
2023/10/09 14:27:17;;;;;;;5.93;4.28;;;14.10;99.90;;;;;;5059536;28;20028;-62
2023/10/09 14:29:46;;;;;;;5.55;3.95;;;14.10;99.90;;;;;;5061907;28;20048;-62
2023/10/09 14:32:13;;;;;;;6.07;4.13;;;14.10;99.90;;;;;;5057041;28;20029;-62
2023/10/09 14:34:43;;;;;;;5.60;4.22;;;14.10;99.90;;;;;;5059910;28;20034;-62
2023/10/09 14:37:14;;;;;;;6.82;4.50;;;14.00;99.90;;;;;;5057336;28;20025;-62
2023/10/09 14:39:48;;;;;;;6.63;4.78;;;13.90;99.90;;;;;;5061248;28;20400;-62
2023/10/09 14:42:15;;;;;;;6.07;4.22;;;14.00;99.90;;;;;;5057063;28;20032;-62
2023/10/09 14:44:41;;;;;;;5.57;4.78;;;13.90;99.90;;;;;;5060355;28;20025;-62
2023/10/09 14:47:08;;;;;;;10.75;5.78;;;13.90;99.90;;;;;;5057297;28;20029;-62
2023/10/09 14:49:43;;;;;;;7.97;5.00;;;13.90;99.90;;;;;;5060709;28;20028;-62
2023/10/09 14:52:09;;;;;;;6.07;4.72;;;13.90;99.90;;;;;;5057524;28;20028;-63
2023/10/09 14:54:36;;;;;;;5.63;4.38;;;13.90;99.90;;;;;;5059421;28;20040;-62
2023/10/09 14:57:05;;;;;;;8.98;4.38;;;14.00;99.90;;;;;;5058784;28;20123;-62
2023/10/09 14:59:34;;;;;;;8.02;5.55;;;14.00;99.90;;;;;;5059598;28;20082;-62
2023/10/09 15:02:01;;;;;;;7.80;5.13;;;14.00;99.90;;;;;;5061121;28;20025;-62
2023/10/09 15:04:27;;;;;;;9.55;6.15;;;14.00;99.90;;;;;;5058363;28;20964;-62
2023/10/09 15:06:53;;;;;;;6.22;5.35;;;13.90;99.90;;;;;;5059883;28;20040;-62
2023/10/09 15:09:22;;;;;;;8.80;5.88;;;13.90;99.90;;;;;;5059988;28;20029;-62
2023/10/09 15:11:48;;;;;;;10.70;6.35;;;13.80;99.90;;;;;;5057986;28;20146;-62
2023/10/09 15:14:15;;;;;;;11.75;5.95;;;13.80;99.90;;;;;;5060057;28;20066;-62
2023/10/09 15:16:42;;;;;;;11.23;7.35;;;13.80;99.90;;;;;;5057469;28;20403;-61
2023/10/09 15:19:09;;;;;;;8.65;6.30;;;13.90;99.90;;;;;;5059861;28;20488;-62
2023/10/09 15:21:43;;;;;;;12.00;7.93;;;13.90;99.90;;;;;;5061838;28;20078;-62
2023/10/09 15:24:19;;;;;;;12.23;8.05;;;13.90;99.90;;;;;;5060662;28;20073;-62
2023/10/09 15:26:57;;;;;;;8.98;7.20;;;13.90;99.90;;;;;;5059934;28;20041;-63
2023/10/09 15:29:32;;;;;;;9.85;6.88;;;13.90;99.90;;;;;;5058636;28;20455;-62
2023/10/09 15:32:14;;;;;;;12.95;8.70;;;13.90;99.90;;;;;;5056017;28;20563;-73
2023/10/09 15:34:41;;;;;;;13.35;8.23;;;13.90;99.90;;;;;;5059076;28;20295;-62
2023/10/09 15:37:07;;;;;;;13.48;8.98;;;13.90;99.90;;;;;;5058144;28;20024;-62
2023/10/09 15:39:36;;;;;;;15.48;8.85;;;13.90;99.90;;;;;;5059341;28;20040;-62
2023/10/09 15:42:06;;;;;;;11.50;7.65;;;13.90;99.90;;;;;;5059736;28;20028;-62
2023/10/09 15:44:36;;;;;;;15.82;9.57;;;13.80;99.90;;;;;;5059014;28;20039;-62
2023/10/09 15:47:03;;;;;;;16.02;10.38;;;13.80;99.90;;;;;;5059618;28;20028;-62
2023/10/09 15:49:33;;;;;;;16.40;10.23;;;13.90;99.90;;;;;;5055913;28;20478;-62
2023/10/09 15:52:01;;;;;;;19.25;11.23;;;13.90;99.90;;;;;;5057869;28;20038;-62
2023/10/09 15:54:28;;;;;;;17.42;10.18;;;13.90;99.90;;;;;;5056025;28;20040;-62
2023/10/09 15:56:55;;;;;;;17.98;10.10;;;13.90;99.90;;;;;;5059236;28;20483;-62
2023/10/09 15:59:24;;;;;;;15.23;9.80;;;13.90;99.90;;;;;;5056933;28;20071;-62
2023/10/09 16:01:51;;;;;;;17.88;10.35;;;13.80;99.90;;;;;;5057830;28;20200;-62
2023/10/09 16:04:17;;;;;;;14.70;9.40;;;13.90;99.90;;;;;;5056639;28;20110;-62
2023/10/09 16:06:43;;;;;;;12.50;9.07;;;13.90;99.90;;;;;;5059334;28;20114;-62
2023/10/09 16:09:15;;;;;;;13.18;8.63;;;13.80;99.90;;;;;;5056828;28;20123;-62
2023/10/09 16:11:41;;;;;;;13.82;9.55;;;13.80;99.90;;;;;;5056104;28;20093;-62